Airfield :
LOGIN :

Register | Disclaimer

   EN    FR    IT 

 










Legend :    VFR   Marginal VFR   IFR   Intensive IFR   Very Intensive IFR
Visi :
Ceiling :
>= 8 km
>= 3000ft
5 to 8 km
1000 to 3000 ft
1500m to 5 km
500 to 1000 ft
800 to 1500m
200 to 500 ft
< 800m
< 200 ft
Symbols :   Thunderstorms  Fog  Heavy snow  Heavy precipitations  Wind > 20 kt
SIGMETs :     Misc.  Thunderstorms  Icing  Turbulence  Mountain Waves  Volcanic Ashes







- Airport Elevation : 200 ft


EBBL - Klein Brogel AB

CURRENT METAR :
  • 240038Z AUTO VRB01KT 5000 NCD 11/08 Q0997 WHT

EXPIRED METARs :
  • 240025Z AUTO 00000KT 9999 FEW230/// 12/08 Q0997 BLU
  • 232355Z AUTO VRB01KT 9999 SCT170/// BKN230/// 13/08 Q0997 BLU
  • 232325Z AUTO VRB01KT 9999 SCT140/// SCT180/// BKN230/// 14/08 Q0997 BLU
  • 232255Z AUTO VRB02KT 9999 BKN140/// BKN240/// 15/08 Q0997 BLU
  • 232225Z AUTO VRB02KT 9999 BKN140/// 14/08 Q0997 BLU
  • 232155Z AUTO VRB01KT 9999 OVC130/// 14/08 Q0997 BLU
  • 232125Z AUTO VRB01KT 9999 BKN120/// 15/08 Q0997 BLU

TAF TAF EBBL
Valid from the 23 at 19:00 until the 24 at 07:00 UTC


231541Z 2319/2407 09008KT 9999 BKN250
BECMG 2321/2323 12005KT 9999 FEW100 SCT200 BKN250
BECMG 2404/2406 18008KT 9999 BKN100
No reported NOTAMs for that airfield.



MET'MAP, your aeronautical weather chart ! - Copyright ORBIFLY December 2007 - Disclaimer

ORBIFLY MET'MAP TEAM :

Programming & Development : Alexandra Zaïnal
Concept & Development : Baudouin d'Aumeries
Co-Development & Prog : Marc-Olivier Méhu
Technical & hardware support : Manuel Goepfert

Contact : metmap@orbifly.com




SOURCES & CREDITS :

   NOAA